createdAt,value
2018-12-14T00:01:25.535Z,15.73
2018-12-14T00:03:53.851Z,14.60
2018-12-14T00:06:22.177Z,15.40
2018-12-14T00:08:50.490Z,14.93
2018-12-14T00:11:18.770Z,15.57
2018-12-14T00:13:47.086Z,15.73
2018-12-14T00:16:15.405Z,16.57
2018-12-14T00:18:43.764Z,17.53
2018-12-14T00:21:12.090Z,16.23
2018-12-14T00:23:40.408Z,15.77
2018-12-14T00:26:08.648Z,16.07
2018-12-14T00:28:36.905Z,16.37
2018-12-14T00:31:05.178Z,15.43
2018-12-14T00:33:33.427Z,16.87
2018-12-14T00:36:01.942Z,17.97
2018-12-14T00:38:30.425Z,17.90
2018-12-14T00:40:58.726Z,15.87
2018-12-14T00:43:27.003Z,17.33
2018-12-14T00:45:55.255Z,17.23
2018-12-14T00:48:23.523Z,16.37
2018-12-14T00:50:51.845Z,17.37
2018-12-14T00:53:20.153Z,18.37
2018-12-14T00:55:48.484Z,16.27
2018-12-14T00:58:16.783Z,17.13
2018-12-14T01:00:45.076Z,16.33
2018-12-14T01:03:13.383Z,18.27
2018-12-14T01:05:41.816Z,16.87
2018-12-14T01:08:10.221Z,18.43
2018-12-14T01:10:38.487Z,17.50
2018-12-14T01:13:06.779Z,17.10
2018-12-14T01:15:35.003Z,18.70
2018-12-14T01:18:03.287Z,18.03
2018-12-14T01:20:31.622Z,17.17
2018-12-14T01:22:59.873Z,18.33
2018-12-14T01:25:28.130Z,17.40
2018-12-14T01:27:56.409Z,16.97
2018-12-14T01:30:24.726Z,17.67
2018-12-14T01:32:53.041Z,17.43
2018-12-14T01:35:21.342Z,18.20
2018-12-14T01:37:49.624Z,18.73
2018-12-14T01:40:17.998Z,17.70
2018-12-14T01:42:46.273Z,18.17
2018-12-14T01:45:14.585Z,17.80
2018-12-14T01:47:42.807Z,18.83
2018-12-14T01:50:11.097Z,17.10
2018-12-14T01:52:39.784Z,18.23
2018-12-14T01:55:08.100Z,18.23
2018-12-14T01:57:36.747Z,18.47
2018-12-14T02:00:05.060Z,18.30
2018-12-14T02:02:33.366Z,18.80
2018-12-14T02:05:01.660Z,19.07
2018-12-14T02:07:29.979Z,18.63
2018-12-14T02:09:58.252Z,17.27
2018-12-14T02:12:26.617Z,17.93
2018-12-14T02:14:54.921Z,18.77
2018-12-14T02:17:23.315Z,18.60
2018-12-14T02:19:51.599Z,19.60
2018-12-14T02:22:19.891Z,18.83
2018-12-14T02:24:48.181Z,18.40
2018-12-14T02:27:16.462Z,20.00
2018-12-14T02:29:44.731Z,19.70
2018-12-14T02:32:13.044Z,18.07
2018-12-14T02:34:41.454Z,19.17
2018-12-14T02:37:09.838Z,19.10
2018-12-14T02:39:38.118Z,19.47
2018-12-14T02:42:06.498Z,17.83
2018-12-14T02:44:34.764Z,18.70
2018-12-14T02:47:03.057Z,18.07
2018-12-14T02:49:31.331Z,18.37
2018-12-14T02:51:59.649Z,18.03
2018-12-14T02:54:27.923Z,19.17
2018-12-14T02:56:56.198Z,19.00
2018-12-14T02:59:24.537Z,19.40
2018-12-14T03:01:52.818Z,18.33
2018-12-14T03:04:21.088Z,18.93
2018-12-14T03:06:49.442Z,18.83
2018-12-14T03:09:17.700Z,18.90
2018-12-14T03:11:45.967Z,18.33
2018-12-14T03:14:14.198Z,18.67
2018-12-14T03:16:42.434Z,19.90
2018-12-14T03:19:10.746Z,17.50
2018-12-14T03:21:39.085Z,19.97
2018-12-14T03:24:07.385Z,19.07
2018-12-14T03:26:35.662Z,19.97
2018-12-14T03:29:03.907Z,19.57
2018-12-14T03:31:32.205Z,19.77
2018-12-14T03:34:00.583Z,21.17
2018-12-14T03:36:28.923Z,19.77
2018-12-14T03:38:57.240Z,19.93
2018-12-14T03:41:25.516Z,18.83
2018-12-14T03:43:53.778Z,18.30
2018-12-14T03:46:22.028Z,19.53
2018-12-14T03:48:50.319Z,18.83
2018-12-14T03:51:23.704Z,20.17
2018-12-14T03:53:52.025Z,17.67
2018-12-14T03:56:20.309Z,18.77
2018-12-14T03:58:48.563Z,19.43
2018-12-14T04:01:16.854Z,18.17
2018-12-14T04:03:45.141Z,18.23
2018-12-14T04:06:13.450Z,18.23
2018-12-14T04:08:41.849Z,18.77
2018-12-14T04:11:10.095Z,19.10
2018-12-14T04:13:38.353Z,17.33
2018-12-14T04:16:06.670Z,19.03
2018-12-14T04:18:34.949Z,19.00
2018-12-14T04:21:03.293Z,18.47
2018-12-14T04:23:31.586Z,19.10
2018-12-14T04:25:59.871Z,18.20
2018-12-14T04:28:28.154Z,18.13
2018-12-14T04:30:56.447Z,17.63
2018-12-14T04:33:24.798Z,17.60
2018-12-14T04:35:53.268Z,18.33
2018-12-14T04:38:21.554Z,18.67
2018-12-14T04:40:49.807Z,18.00
2018-12-14T04:43:18.070Z,18.00
2018-12-14T04:45:46.362Z,19.73
2018-12-14T04:48:14.602Z,18.17
2018-12-14T04:50:42.911Z,20.03
2018-12-14T04:53:11.295Z,19.00
2018-12-14T04:55:39.658Z,19.17
2018-12-14T04:58:07.897Z,18.80
2018-12-14T05:00:36.188Z,19.50
2018-12-14T05:03:04.544Z,18.83
2018-12-14T05:05:32.802Z,18.93
2018-12-14T05:08:01.081Z,17.70
2018-12-14T05:10:29.333Z,18.03
2018-12-14T05:12:57.567Z,18.50
2018-12-14T05:15:25.846Z,18.60
2018-12-14T05:17:54.173Z,19.03
2018-12-14T05:20:22.442Z,18.70
2018-12-14T05:22:50.692Z,19.77
2018-12-14T05:25:18.976Z,18.00
2018-12-14T05:27:47.269Z,17.43
2018-12-14T05:30:15.662Z,17.00
2018-12-14T05:32:44.086Z,19.73
2018-12-14T05:35:12.347Z,18.53
2018-12-14T05:37:40.644Z,19.97
2018-12-14T05:40:08.949Z,18.53
2018-12-14T05:42:37.213Z,19.60
2018-12-14T05:45:06.001Z,19.43
2018-12-14T05:47:34.300Z,19.03
2018-12-14T05:50:02.591Z,18.73
2018-12-14T05:52:30.873Z,18.47
2018-12-14T05:54:59.153Z,18.83
2018-12-14T05:57:27.385Z,18.90
2018-12-14T05:59:55.633Z,17.97
2018-12-14T06:02:23.973Z,19.47
2018-12-14T06:04:52.260Z,19.50
2018-12-14T06:07:20.612Z,20.90
2018-12-14T06:09:48.900Z,17.93
2018-12-14T06:12:17.323Z,20.93
2018-12-14T06:14:45.655Z,20.07
2018-12-14T06:17:13.951Z,20.43
2018-12-14T06:19:42.196Z,19.47
2018-12-14T06:22:10.437Z,19.80
2018-12-14T06:24:38.775Z,19.33
2018-12-14T06:27:07.061Z,19.73
2018-12-14T06:29:35.295Z,19.33
2018-12-14T06:32:03.571Z,17.63
2018-12-14T06:34:31.983Z,19.77
2018-12-14T06:37:00.705Z,19.87
2018-12-14T06:39:29.287Z,19.43
2018-12-14T06:41:57.838Z,20.53
2018-12-14T06:44:26.167Z,19.03
2018-12-14T06:46:54.462Z,19.83
2018-12-14T06:49:22.737Z,20.60
2018-12-14T06:51:51.024Z,19.97
2018-12-14T06:54:19.309Z,20.20
2018-12-14T06:56:47.614Z,20.10
2018-12-14T06:59:15.854Z,19.07
2018-12-14T07:01:44.142Z,19.33
2018-12-14T07:04:12.412Z,19.63
2018-12-14T07:06:40.717Z,20.30
2018-12-14T07:09:08.981Z,19.67
2018-12-14T07:11:37.265Z,19.40
2018-12-14T07:14:05.539Z,20.20
2018-12-14T07:16:33.869Z,20.83
2018-12-14T07:19:02.110Z,19.73
2018-12-14T07:21:30.350Z,17.57
2018-12-14T07:23:58.695Z,19.73
2018-12-14T07:26:27.124Z,20.53
2018-12-14T07:28:55.577Z,20.20
2018-12-14T07:31:24.136Z,19.77
2018-12-14T07:33:52.425Z,18.30
2018-12-14T07:36:20.778Z,19.23
2018-12-14T07:38:49.056Z,19.97
2018-12-14T07:41:17.382Z,20.10
2018-12-14T07:43:45.677Z,20.47
2018-12-14T07:46:13.988Z,19.07
2018-12-14T07:48:42.291Z,20.90
2018-12-14T07:51:10.545Z,22.20
2018-12-14T07:53:38.807Z,22.33
2018-12-14T07:56:07.152Z,22.00
2018-12-14T07:58:36.744Z,21.63
2018-12-14T08:01:05.036Z,21.33
2018-12-14T08:03:33.310Z,20.37
2018-12-14T08:06:01.575Z,21.33
2018-12-14T08:08:29.903Z,20.37
2018-12-14T08:10:58.139Z,20.07
2018-12-14T08:13:26.534Z,20.00
2018-12-14T08:15:54.789Z,19.57
2018-12-14T08:18:23.053Z,20.10
2018-12-14T08:20:51.303Z,20.83
2018-12-14T08:23:19.616Z,19.63
2018-12-14T08:25:47.870Z,20.47
2018-12-14T08:28:16.149Z,20.30
2018-12-14T08:30:44.418Z,23.60
2018-12-14T08:33:12.647Z,21.37
2018-12-14T08:35:40.883Z,21.30
2018-12-14T08:38:09.158Z,19.77
2018-12-14T08:40:37.417Z,21.43
2018-12-14T08:43:05.662Z,21.70
2018-12-14T08:45:33.954Z,20.20
2018-12-14T08:48:02.293Z,20.07
2018-12-14T08:50:30.699Z,20.10
2018-12-14T08:52:58.921Z,20.70
2018-12-14T08:55:27.188Z,19.97
2018-12-14T08:57:55.479Z,20.40
2018-12-14T09:00:23.811Z,20.53
2018-12-14T09:02:52.105Z,20.27
2018-12-14T09:05:20.391Z,18.90
2018-12-14T09:07:48.668Z,19.27
2018-12-14T09:10:16.884Z,20.07
2018-12-14T09:12:45.162Z,18.50
2018-12-14T09:15:13.392Z,18.47
2018-12-14T09:17:41.711Z,19.37
2018-12-14T09:20:10.048Z,16.77
2018-12-14T09:22:38.388Z,19.47
2018-12-14T09:25:06.667Z,18.40
2018-12-14T09:27:34.905Z,18.67
2018-12-14T09:30:03.133Z,20.13
2018-12-14T09:32:31.403Z,17.50
2018-12-14T09:34:59.753Z,19.50
2018-12-14T09:37:28.003Z,17.60
2018-12-14T09:39:57.274Z,17.53
2018-12-14T09:42:25.685Z,16.23
2018-12-14T09:44:53.957Z,16.43
2018-12-14T09:47:22.185Z,16.60
2018-12-14T09:49:50.439Z,16.87
2018-12-14T09:52:18.690Z,16.50
2018-12-14T09:54:46.923Z,17.23
2018-12-14T09:57:15.153Z,16.40
2018-12-14T09:59:43.403Z,16.53
2018-12-14T10:02:11.685Z,15.23
2018-12-14T10:04:39.936Z,15.93
2018-12-14T10:07:08.215Z,15.50
2018-12-14T10:09:36.457Z,14.53
2018-12-14T10:12:04.777Z,15.53
2018-12-14T10:14:33.087Z,14.80
2018-12-14T10:17:01.843Z,15.63
2018-12-14T10:19:30.209Z,14.73
2018-12-14T10:21:58.450Z,13.87
2018-12-14T10:24:26.730Z,14.13
2018-12-14T10:26:55.005Z,15.10
2018-12-14T10:29:23.257Z,14.80
2018-12-14T10:31:51.888Z,13.32
2018-12-14T10:34:20.183Z,13.83
2018-12-14T10:36:48.468Z,14.03
2018-12-14T10:39:16.715Z,14.30
2018-12-14T10:41:44.997Z,12.10
2018-12-14T10:44:13.352Z,13.30
2018-12-14T10:46:41.665Z,14.13
2018-12-14T10:49:10.046Z,13.27
2018-12-14T10:51:38.424Z,11.70
2018-12-14T10:54:06.662Z,13.13
2018-12-14T10:56:34.993Z,13.17
2018-12-14T10:59:03.312Z,12.80
2018-12-14T11:01:36.895Z,13.00
2018-12-14T11:04:05.218Z,14.57
2018-12-14T11:06:33.572Z,12.40
2018-12-14T11:09:01.866Z,13.48
2018-12-14T11:11:30.092Z,14.23
2018-12-14T11:13:58.359Z,13.60
2018-12-14T11:16:26.608Z,14.73
2018-12-14T11:18:54.851Z,13.53
2018-12-14T11:21:23.122Z,13.25
2018-12-14T11:23:51.366Z,13.07
2018-12-14T11:26:19.653Z,13.67
2018-12-14T11:28:47.938Z,13.23
2018-12-14T11:31:16.183Z,12.80
2018-12-14T11:33:44.471Z,12.97
2018-12-14T11:36:19.511Z,13.30
2018-12-14T11:38:47.745Z,13.47
2018-12-14T11:41:18.540Z,12.30
2018-12-14T11:43:46.297Z,12.83
2018-12-14T11:46:14.575Z,12.88
2018-12-14T11:48:42.833Z,13.48
2018-12-14T11:51:13.552Z,12.50
2018-12-14T11:53:41.819Z,13.73
2018-12-14T11:56:10.077Z,13.10
2018-12-14T11:58:38.290Z,13.30
2018-12-14T12:01:06.732Z,13.23
2018-12-14T12:03:35.174Z,12.05
2018-12-14T12:06:03.390Z,13.07
2018-12-14T12:08:31.673Z,13.03
2018-12-14T12:10:59.935Z,13.40
2018-12-14T12:13:28.200Z,12.40
2018-12-14T12:15:56.466Z,12.17
2018-12-14T12:18:24.689Z,13.37
2018-12-14T12:20:53.183Z,13.20
2018-12-14T12:23:21.431Z,13.50
2018-12-14T12:25:49.661Z,13.47
2018-12-14T12:28:17.943Z,13.55
2018-12-14T12:30:46.235Z,12.97
2018-12-14T12:33:14.481Z,13.55
2018-12-14T12:35:42.767Z,12.70
2018-12-14T12:38:11.012Z,13.17
2018-12-14T12:40:39.265Z,13.77
2018-12-14T12:43:07.581Z,12.50
2018-12-14T12:45:35.805Z,12.77
2018-12-14T12:48:04.045Z,13.25
2018-12-14T12:50:32.358Z,13.17
2018-12-14T12:53:00.629Z,12.80
2018-12-14T12:55:29.027Z,13.98
2018-12-14T12:57:57.323Z,13.20
2018-12-14T13:00:25.647Z,12.98
2018-12-14T13:02:54.147Z,13.07
2018-12-14T13:05:22.366Z,13.27
2018-12-14T13:07:50.638Z,12.33
2018-12-14T13:10:19.000Z,12.63
2018-12-14T13:12:47.351Z,13.37
2018-12-14T13:15:15.666Z,13.93
2018-12-14T13:17:44.016Z,12.83
2018-12-14T13:20:12.282Z,14.10
2018-12-14T13:22:40.843Z,13.18
2018-12-14T13:25:09.095Z,13.63
2018-12-14T13:27:37.372Z,13.27
2018-12-14T13:30:06.032Z,14.47
2018-12-14T13:32:34.291Z,13.00
2018-12-14T13:35:02.530Z,13.23
2018-12-14T13:37:30.797Z,13.60
2018-12-14T13:39:59.073Z,12.53
2018-12-14T13:42:27.471Z,14.27
2018-12-14T13:44:56.203Z,13.17
2018-12-14T13:47:24.546Z,13.53
2018-12-14T13:49:52.855Z,13.20
2018-12-14T13:52:21.123Z,14.23
2018-12-14T13:54:49.392Z,13.38
2018-12-14T13:57:17.648Z,13.50
2018-12-14T13:59:45.909Z,13.43
2018-12-14T14:02:14.208Z,12.93
2018-12-14T14:04:42.483Z,12.90
2018-12-14T14:07:10.702Z,13.23
2018-12-14T14:09:40.978Z,13.65
2018-12-14T14:12:09.230Z,12.23
2018-12-14T14:14:37.602Z,12.70
2018-12-14T14:17:05.865Z,12.80
2018-12-14T14:19:34.461Z,12.47
2018-12-14T14:22:02.777Z,13.10
2018-12-14T14:24:31.060Z,12.25
2018-12-14T14:26:59.300Z,12.93
2018-12-14T14:29:27.529Z,12.15
2018-12-14T14:31:55.808Z,13.32
2018-12-14T14:34:24.092Z,13.40
2018-12-14T14:36:52.386Z,12.13
2018-12-14T14:39:20.652Z,12.13
2018-12-14T14:41:48.971Z,12.17
2018-12-14T14:44:17.251Z,11.63
2018-12-14T14:46:45.547Z,12.43
2018-12-14T14:49:13.849Z,12.03
2018-12-14T14:51:42.514Z,13.23
2018-12-14T14:54:10.760Z,11.50
2018-12-14T14:56:39.042Z,11.83
2018-12-14T14:59:07.301Z,12.07
2018-12-14T15:01:35.566Z,12.97
2018-12-14T15:04:03.852Z,12.87
2018-12-14T15:06:32.129Z,12.67
2018-12-14T15:09:00.446Z,12.47
2018-12-14T15:11:28.734Z,12.53
2018-12-14T15:13:57.629Z,12.90
2018-12-14T15:16:25.876Z,12.63
2018-12-14T15:18:54.138Z,11.50
2018-12-14T15:21:22.423Z,12.27
2018-12-14T15:23:50.840Z,11.87
2018-12-14T15:26:19.115Z,11.65
2018-12-14T15:28:47.396Z,13.47
2018-12-14T15:31:15.713Z,13.00
2018-12-14T15:33:44.013Z,12.63
2018-12-14T15:36:12.325Z,12.37
2018-12-14T15:38:40.675Z,11.80
2018-12-14T15:41:08.945Z,13.10
2018-12-14T15:43:37.188Z,13.20
2018-12-14T15:46:05.486Z,12.33
2018-12-14T15:48:33.790Z,12.77
2018-12-14T15:51:02.085Z,12.47
2018-12-14T15:53:30.362Z,11.93
2018-12-14T15:56:04.604Z,11.43
2018-12-14T15:58:32.922Z,11.73
2018-12-14T16:01:01.249Z,13.87
2018-12-14T16:03:29.577Z,11.87
2018-12-14T16:05:57.910Z,12.30
2018-12-14T16:08:26.201Z,12.17
2018-12-14T16:10:54.491Z,12.07
2018-12-14T16:13:22.756Z,12.67
2018-12-14T16:15:51.159Z,11.80
2018-12-14T16:18:19.556Z,12.50
2018-12-14T16:20:47.808Z,13.30
2018-12-14T16:23:16.064Z,11.50
2018-12-14T16:25:44.360Z,12.90
2018-12-14T16:28:12.727Z,13.57
2018-12-14T16:30:40.981Z,12.37
2018-12-14T16:33:09.278Z,13.47
2018-12-14T16:35:37.531Z,13.90
2018-12-14T16:38:05.810Z,13.10
2018-12-14T16:40:34.422Z,15.20
2018-12-14T16:43:02.727Z,14.30
2018-12-14T16:45:30.982Z,13.80
2018-12-14T16:47:59.281Z,20.30
2018-12-14T16:50:27.646Z,14.30
2018-12-14T16:52:55.977Z,15.20
2018-12-14T16:55:24.225Z,15.13
2018-12-14T16:57:52.657Z,13.27
2018-12-14T17:00:20.926Z,12.20
2018-12-14T17:02:49.180Z,13.07
2018-12-14T17:05:17.452Z,13.87
2018-12-14T17:07:45.722Z,13.60
2018-12-14T17:10:14.071Z,12.80
2018-12-14T17:12:42.373Z,12.00
2018-12-14T17:15:10.670Z,12.70
2018-12-14T17:17:38.997Z,12.37
2018-12-14T17:20:07.290Z,12.93
2018-12-14T17:22:35.674Z,12.17
2018-12-14T17:25:04.481Z,12.07
2018-12-14T17:27:32.884Z,12.80
2018-12-14T17:30:01.294Z,13.13
2018-12-14T17:32:29.748Z,11.97
2018-12-14T17:34:58.025Z,12.68
2018-12-14T17:37:26.399Z,12.97
2018-12-14T17:39:54.646Z,11.83
2018-12-14T17:42:22.997Z,11.90
2018-12-14T17:44:51.295Z,13.83
2018-12-14T17:47:19.636Z,12.15
2018-12-14T17:49:47.953Z,13.10
2018-12-14T17:52:16.235Z,12.47
2018-12-14T17:54:44.574Z,11.33
2018-12-14T17:57:12.901Z,12.37
2018-12-14T17:59:41.229Z,12.33
2018-12-14T18:02:09.475Z,12.30
2018-12-14T18:04:37.759Z,11.47
2018-12-14T18:07:06.133Z,12.47
2018-12-14T18:09:34.399Z,11.23
2018-12-14T18:12:02.698Z,12.37
2018-12-14T18:14:31.053Z,12.57
2018-12-14T18:16:59.324Z,13.62
2018-12-14T18:19:27.597Z,13.03
2018-12-14T18:21:55.851Z,14.10
2018-12-14T18:24:24.095Z,14.40
2018-12-14T18:26:52.373Z,13.50
2018-12-14T18:29:20.688Z,14.50
2018-12-14T18:31:49.034Z,14.80
2018-12-14T18:34:17.269Z,14.07
2018-12-14T18:36:45.648Z,14.37
2018-12-14T18:39:13.990Z,12.07
2018-12-14T18:41:42.291Z,13.85
2018-12-14T18:44:10.656Z,14.30
2018-12-14T18:46:38.981Z,13.57
2018-12-14T18:49:07.283Z,14.00
2018-12-14T18:51:35.625Z,13.60
2018-12-14T18:54:03.914Z,13.87
2018-12-14T18:56:32.185Z,14.40
2018-12-14T18:59:00.614Z,12.93
2018-12-14T19:01:28.922Z,13.25
2018-12-14T19:03:57.325Z,15.97
2018-12-14T19:06:25.599Z,15.03
2018-12-14T19:08:53.944Z,15.47
2018-12-14T19:11:22.308Z,17.13
2018-12-14T19:13:50.702Z,18.50
2018-12-14T19:16:18.985Z,16.97
2018-12-14T19:18:47.555Z,15.00
2018-12-14T19:21:16.081Z,14.90
2018-12-14T19:23:44.346Z,14.43
2018-12-14T19:26:12.602Z,15.70
2018-12-14T19:28:40.878Z,15.53
2018-12-14T19:31:09.178Z,15.40
2018-12-14T19:33:37.534Z,14.55
2018-12-14T19:36:05.787Z,15.20
2018-12-14T19:38:34.227Z,16.13
2018-12-14T19:41:02.496Z,15.67
2018-12-14T19:43:30.810Z,16.80
2018-12-14T19:45:59.048Z,15.70
2018-12-14T19:48:27.359Z,14.80
2018-12-14T19:50:55.660Z,15.30
2018-12-14T19:53:23.937Z,16.03
2018-12-14T19:55:52.229Z,15.63
2018-12-14T19:58:20.534Z,16.13
2018-12-14T20:00:48.894Z,16.87
2018-12-14T20:03:17.157Z,15.33
2018-12-14T20:05:45.438Z,15.63
2018-12-14T20:08:13.787Z,16.60
2018-12-14T20:10:42.076Z,16.87
2018-12-14T20:13:10.340Z,16.63
2018-12-14T20:15:38.598Z,16.73
2018-12-14T20:18:06.932Z,16.35
2018-12-14T20:20:35.174Z,16.13
2018-12-14T20:23:03.462Z,17.20
2018-12-14T20:25:31.720Z,16.33
2018-12-14T20:28:00.101Z,17.20
2018-12-14T20:30:28.433Z,17.03
2018-12-14T20:32:56.750Z,16.17
2018-12-14T20:35:25.146Z,16.53
2018-12-14T20:37:53.657Z,16.97
2018-12-14T20:40:21.947Z,16.83
2018-12-14T20:42:50.208Z,20.13
2018-12-14T20:45:18.476Z,18.20
2018-12-14T20:47:46.761Z,17.80
2018-12-14T20:50:15.099Z,18.83
2018-12-14T20:52:43.412Z,17.13
2018-12-14T20:55:11.702Z,17.30
2018-12-14T20:57:39.948Z,17.30
2018-12-14T21:00:10.349Z,17.95
2018-12-14T21:02:38.621Z,18.02
2018-12-14T21:05:06.909Z,17.73
2018-12-14T21:07:35.176Z,18.03
2018-12-14T21:10:03.485Z,16.93
2018-12-14T21:12:31.802Z,16.93
2018-12-14T21:15:00.171Z,17.67
2018-12-14T21:17:28.425Z,16.73
2018-12-14T21:19:56.746Z,19.43
2018-12-14T21:22:25.060Z,18.45
2018-12-14T21:24:53.318Z,17.90
2018-12-14T21:27:21.592Z,17.27
2018-12-14T21:29:49.924Z,18.12
2018-12-14T21:32:18.224Z,16.97
2018-12-14T21:34:46.553Z,19.07
2018-12-14T21:37:14.840Z,17.97
2018-12-14T21:39:43.110Z,19.20
2018-12-14T21:42:11.415Z,17.40
2018-12-14T21:44:39.687Z,18.33
2018-12-14T21:47:08.002Z,17.50
2018-12-14T21:49:36.266Z,17.80
2018-12-14T21:52:04.530Z,18.30
2018-12-14T21:54:32.804Z,17.50
2018-12-14T21:57:01.179Z,18.53
2018-12-14T21:59:30.422Z,17.90
2018-12-14T22:01:59.284Z,18.83
2018-12-14T22:04:27.600Z,18.50
2018-12-14T22:06:55.994Z,18.03
2018-12-14T22:09:24.303Z,18.60
2018-12-14T22:11:52.681Z,17.70
2018-12-14T22:14:21.027Z,19.10
2018-12-14T22:16:49.403Z,19.02
2018-12-14T22:19:17.753Z,19.63
2018-12-14T22:21:46.085Z,18.73
2018-12-14T22:24:14.420Z,18.82
2018-12-14T22:26:42.823Z,18.80
2018-12-14T22:29:11.351Z,19.67
2018-12-14T22:31:39.864Z,18.47
2018-12-14T22:34:08.221Z,18.83
2018-12-14T22:36:36.499Z,18.10
2018-12-14T22:39:07.046Z,17.70
2018-12-14T22:41:35.516Z,18.37
2018-12-14T22:44:03.762Z,17.57
2018-12-14T22:46:32.066Z,19.67
2018-12-14T22:49:00.405Z,19.27
2018-12-14T22:51:28.842Z,19.77
2018-12-14T22:53:57.118Z,17.47
2018-12-14T22:56:25.391Z,18.30
2018-12-14T22:58:53.659Z,19.07
2018-12-14T23:01:21.925Z,19.20
2018-12-14T23:03:50.218Z,18.97
2018-12-14T23:06:18.478Z,19.17
2018-12-14T23:08:46.718Z,19.23
2018-12-14T23:11:15.026Z,18.77
2018-12-14T23:13:43.381Z,19.63
2018-12-14T23:16:11.723Z,18.57
2018-12-14T23:18:39.997Z,18.75
2018-12-14T23:21:08.256Z,17.93
2018-12-14T23:23:36.546Z,19.37
2018-12-14T23:26:04.812Z,18.93
2018-12-14T23:28:33.205Z,20.43
2018-12-14T23:31:01.775Z,19.03
2018-12-14T23:33:30.132Z,19.67
2018-12-14T23:35:58.406Z,18.40
2018-12-14T23:38:26.704Z,19.30
2018-12-14T23:40:54.999Z,19.07
2018-12-14T23:43:23.264Z,18.53
2018-12-14T23:45:51.515Z,17.00
2018-12-14T23:48:19.801Z,18.85
2018-12-14T23:50:48.092Z,18.47
2018-12-14T23:53:16.373Z,18.77
2018-12-14T23:55:44.689Z,18.47
2018-12-14T23:58:12.960Z,18.33
